Time;durP1;ratioP1;P1;durP2;ratioP2;P2;SDS_P1;SDS_P2;PMS_P1;PMS_P2;Temp;Humidity;BMP_temperature;BMP_pressure;BME280_temperature;BME280_humidity;BME280_pressure;Samples;Min_cycle;Max_cycle;Signal;HPM_P1;HPM_P2
2023/12/16 00:01:07;;;;;;;1.20;1.10;;;8.90;84.10;;;;;;5078402;28;20543;-83
2023/12/16 00:03:36;;;;;;;1.87;1.73;;;8.90;85.10;;;;;;5073846;28;20246;-83
2023/12/16 00:06:05;;;;;;;1.80;1.37;;;9.00;84.20;;;;;;5072286;28;20198;-83
2023/12/16 00:08:33;;;;;;;0.77;0.77;;;9.00;84.10;;;;;;5072677;28;20202;-84
2023/12/16 00:11:02;;;;;;;5.63;1.33;;;8.90;83.60;;;;;;5080060;28;20202;-84
2023/12/16 00:13:31;;;;;;;0.60;0.60;;;8.90;83.40;;;;;;5079227;28;20195;-84
2023/12/16 00:16:00;;;;;;;0.83;0.83;;;8.90;83.90;;;;;;5081718;28;20225;-84
2023/12/16 00:18:30;;;;;;;1.37;1.27;;;9.00;83.80;;;;;;5084398;28;20218;-83
2023/12/16 00:20:58;;;;;;;2.23;2.10;;;9.00;83.60;;;;;;5074151;28;20206;-84
2023/12/16 00:23:27;;;;;;;1.90;1.40;;;8.90;83.30;;;;;;5074961;28;20222;-82
2023/12/16 00:25:58;;;;;;;0.80;0.80;;;9.00;83.30;;;;;;5076516;28;20209;-81
2023/12/16 00:28:26;;;;;;;2.03;1.67;;;9.00;83.20;;;;;;5072077;28;20202;-81
2023/12/16 00:30:55;;;;;;;0.70;0.70;;;9.00;83.10;;;;;;5074419;28;20225;-81
2023/12/16 00:33:24;;;;;;;1.97;1.77;;;8.90;83.10;;;;;;5071998;28;20731;-82
2023/12/16 00:35:55;;;;;;;1.53;1.03;;;9.00;83.00;;;;;;5070314;28;20204;-81
2023/12/16 00:38:23;;;;;;;1.83;1.43;;;9.00;83.10;;;;;;5074561;28;20201;-81
2023/12/16 00:40:52;;;;;;;3.07;1.20;;;9.00;83.20;;;;;;5080189;28;20562;-82
2023/12/16 00:43:21;;;;;;;1.97;1.37;;;9.00;83.20;;;;;;5086158;28;20218;-82
2023/12/16 00:45:49;;;;;;;1.83;1.67;;;9.00;83.30;;;;;;5071768;28;20203;-81
2023/12/16 00:48:18;;;;;;;0.70;0.70;;;9.00;83.20;;;;;;5080614;28;20196;-82
2023/12/16 00:50:46;;;;;;;2.10;1.73;;;9.00;83.00;;;;;;5071766;28;20669;-82
2023/12/16 00:53:16;;;;;;;0.43;0.43;;;9.00;83.10;;;;;;5076098;28;20564;-82
2023/12/16 00:55:45;;;;;;;2.03;1.87;;;9.10;83.30;;;;;;5074061;28;20198;-82
2023/12/16 00:58:14;;;;;;;0.43;0.43;;;9.10;83.20;;;;;;5071787;28;20717;-82
2023/12/16 01:00:43;;;;;;;1.83;1.20;;;9.00;82.90;;;;;;5076523;28;20202;-83
2023/12/16 01:03:12;;;;;;;1.53;1.43;;;9.10;83.20;;;;;;5076151;28;20233;-82
2023/12/16 01:05:40;;;;;;;2.93;1.57;;;9.10;83.10;;;;;;5072839;28;20263;-81
2023/12/16 01:08:09;;;;;;;3.17;1.13;;;9.10;83.10;;;;;;5055290;28;20198;-82
2023/12/16 01:10:40;;;;;;;1.27;1.17;;;9.20;83.20;;;;;;5071559;28;20277;-84
2023/12/16 01:13:08;;;;;;;0.73;0.73;;;9.20;83.10;;;;;;5075844;28;20201;-83
2023/12/16 01:15:37;;;;;;;1.47;1.20;;;9.20;83.00;;;;;;5073416;28;20812;-82
2023/12/16 01:18:09;;;;;;;0.73;0.73;;;9.20;83.00;;;;;;5081205;28;20197;-83
2023/12/16 01:20:37;;;;;;;1.83;1.13;;;9.30;83.10;;;;;;5088139;28;20650;-82
2023/12/16 01:23:06;;;;;;;1.00;1.00;;;9.20;83.00;;;;;;5074955;28;20305;-84
2023/12/16 01:25:35;;;;;;;0.50;0.50;;;9.20;83.10;;;;;;5076261;28;20202;-81
2023/12/16 01:28:05;;;;;;;1.90;1.30;;;9.20;83.10;;;;;;5081518;28;20197;-83
2023/12/16 01:30:35;;;;;;;2.27;1.67;;;9.20;83.00;;;;;;5083268;28;20264;-83
2023/12/16 01:33:05;;;;;;;1.00;1.00;;;9.10;83.30;;;;;;5079448;28;20217;-82
2023/12/16 01:35:34;;;;;;;1.60;1.50;;;9.20;84.20;;;;;;5080998;28;20202;-82
2023/12/16 01:38:03;;;;;;;2.63;2.23;;;9.20;83.40;;;;;;5082511;28;20198;-83
2023/12/16 01:40:31;;;;;;;1.30;1.17;;;9.10;83.60;;;;;;5075348;28;20267;-83
2023/12/16 01:43:06;;;;;;;1.83;1.40;;;9.20;83.40;;;;;;5076389;28;20692;-83
2023/12/16 01:45:35;;;;;;;6.30;2.40;;;9.10;83.60;;;;;;5075952;28;20201;-83
2023/12/16 01:48:04;;;;;;;1.10;1.07;;;9.10;83.70;;;;;;5080096;28;20190;-82
2023/12/16 01:50:34;;;;;;;2.53;1.50;;;9.10;83.80;;;;;;5069974;28;20195;-83
2023/12/16 01:53:05;;;;;;;0.50;0.50;;;9.00;84.10;;;;;;5078575;28;20204;-82
2023/12/16 01:55:34;;;;;;;6.53;2.93;;;9.00;84.10;;;;;;5079661;28;20677;-82
2023/12/16 01:58:05;;;;;;;1.87;0.87;;;9.00;84.40;;;;;;5080686;28;20313;-81
2023/12/16 02:00:34;;;;;;;1.50;1.40;;;9.00;84.40;;;;;;5073976;28;20231;-83
2023/12/16 02:03:03;;;;;;;3.07;2.00;;;8.90;84.40;;;;;;5082136;28;20610;-81
2023/12/16 02:05:32;;;;;;;1.53;1.43;;;9.00;84.60;;;;;;5082918;28;20589;-83
2023/12/16 02:08:01;;;;;;;4.37;1.83;;;8.90;84.80;;;;;;5073878;28;20285;-83
2023/12/16 02:10:29;;;;;;;3.70;1.97;;;8.90;84.70;;;;;;5084842;28;20548;-82
2023/12/16 02:12:58;;;;;;;0.87;0.77;;;8.90;84.70;;;;;;5075431;28;20209;-83
2023/12/16 02:15:28;;;;;;;2.33;1.87;;;8.90;84.80;;;;;;5081170;28;20197;-82
2023/12/16 02:17:57;;;;;;;1.63;1.53;;;8.90;84.90;;;;;;5078148;28;20206;-82
2023/12/16 02:20:26;;;;;;;0.60;0.60;;;8.90;85.20;;;;;;5076152;28;20205;-83
2023/12/16 02:22:55;;;;;;;2.30;1.93;;;8.90;85.10;;;;;;5071350;28;20222;-83
2023/12/16 02:25:25;;;;;;;1.60;1.50;;;8.80;85.20;;;;;;5081922;28;20182;-82
2023/12/16 02:27:54;;;;;;;4.13;2.93;;;8.90;85.20;;;;;;5078829;28;20218;-82
2023/12/16 02:30:24;;;;;;;1.43;1.33;;;8.90;85.20;;;;;;5085896;28;20583;-83
2023/12/16 02:32:55;;;;;;;2.33;1.43;;;8.80;85.10;;;;;;5077751;28;20442;-82
2023/12/16 02:35:24;;;;;;;2.00;1.80;;;8.80;85.10;;;;;;5076539;28;20208;-83
2023/12/16 02:37:52;;;;;;;1.60;1.50;;;8.80;85.10;;;;;;5076243;28;20199;-81
2023/12/16 02:40:21;;;;;;;1.10;1.10;;;8.80;84.80;;;;;;5083051;28;20620;-82
2023/12/16 02:42:51;;;;;;;1.47;1.40;;;8.80;84.90;;;;;;5076895;28;20226;-81
2023/12/16 02:45:20;;;;;;;2.20;1.63;;;8.80;84.90;;;;;;5079270;28;20198;-84
2023/12/16 02:47:48;;;;;;;1.10;1.10;;;8.90;85.50;;;;;;5073451;28;20194;-82
2023/12/16 02:50:18;;;;;;;1.50;1.27;;;8.90;84.50;;;;;;5079012;28;20198;-82
2023/12/16 02:52:46;;;;;;;3.77;1.33;;;8.80;84.20;;;;;;5075865;28;20217;-83
2023/12/16 02:55:17;;;;;;;0.80;0.80;;;8.80;84.30;;;;;;5069663;28;20187;-83
2023/12/16 02:57:46;;;;;;;1.07;0.97;;;8.80;83.90;;;;;;5075142;28;20293;-82
2023/12/16 03:00:19;;;;;;;0.97;0.97;;;8.80;83.90;;;;;;5063392;28;20181;-83
2023/12/16 03:02:47;;;;;;;1.23;1.13;;;8.80;83.90;;;;;;5083247;28;20233;-83
2023/12/16 03:05:16;;;;;;;1.43;1.33;;;8.80;84.60;;;;;;5071159;28;20205;-82
2023/12/16 03:07:44;;;;;;;1.60;1.50;;;8.80;83.60;;;;;;5074372;28;20258;-85
2023/12/16 03:10:13;;;;;;;2.13;1.37;;;8.80;83.30;;;;;;5077339;28;20213;-83
2023/12/16 03:12:42;;;;;;;5.47;1.73;;;8.80;82.90;;;;;;5075295;28;20503;-83
2023/12/16 03:15:11;;;;;;;0.77;0.77;;;8.70;83.30;;;;;;5077805;28;20199;-85
2023/12/16 03:17:43;;;;;;;1.23;1.13;;;8.80;83.40;;;;;;5076610;28;20194;-83
2023/12/16 03:20:13;;;;;;;0.80;0.80;;;8.80;83.30;;;;;;5068935;28;20194;-85
2023/12/16 03:22:41;;;;;;;1.00;1.00;;;8.80;83.10;;;;;;5076308;28;20535;-83
2023/12/16 03:25:09;;;;;;;1.13;1.03;;;8.80;82.80;;;;;;5076313;28;20241;-84
2023/12/16 03:27:38;;;;;;;2.50;1.60;;;8.80;82.80;;;;;;5082297;28;20201;-84
2023/12/16 03:30:09;;;;;;;2.73;1.53;;;8.80;83.00;;;;;;5080152;28;20244;-84
2023/12/16 03:32:39;;;;;;;1.13;1.03;;;8.80;83.00;;;;;;5080368;28;20239;-84
2023/12/16 03:35:10;;;;;;;1.20;1.10;;;8.80;83.00;;;;;;5072127;28;20336;-84
2023/12/16 03:37:40;;;;;;;0.50;0.50;;;8.80;82.80;;;;;;5075055;28;20519;-85
2023/12/16 03:40:09;;;;;;;4.63;1.27;;;8.80;82.80;;;;;;5073214;28;20203;-85
2023/12/16 03:42:38;;;;;;;1.93;1.77;;;8.80;82.80;;;;;;5077175;28;20252;-85
2023/12/16 03:45:07;;;;;;;0.67;0.67;;;8.80;83.00;;;;;;5071899;28;20214;-83
2023/12/16 03:47:37;;;;;;;1.57;1.40;;;8.80;83.00;;;;;;5073737;28;20198;-84
2023/12/16 03:50:06;;;;;;;1.73;1.50;;;8.80;82.70;;;;;;5066286;28;20194;-85
2023/12/16 03:52:37;;;;;;;0.80;0.80;;;8.80;82.60;;;;;;5070436;28;20202;-87
2023/12/16 03:55:06;;;;;;;0.70;0.70;;;8.80;82.90;;;;;;5078300;28;20273;-85
2023/12/16 03:57:35;;;;;;;0.87;0.87;;;8.80;82.90;;;;;;5070126;28;20217;-87
2023/12/16 04:00:04;;;;;;;1.37;1.13;;;8.80;82.30;;;;;;5072894;28;20198;-87
2023/12/16 04:02:33;;;;;;;0.70;0.70;;;8.80;82.00;;;;;;5075783;28;20209;-85
2023/12/16 04:05:02;;;;;;;3.50;2.20;;;8.70;81.60;;;;;;5074319;28;20222;-86
2023/12/16 04:07:31;;;;;;;0.40;0.40;;;8.70;81.60;;;;;;5078159;28;20202;-84
2023/12/16 04:10:02;;;;;;;0.60;0.60;;;8.70;80.70;;;;;;5074978;28;20688;-87
2023/12/16 04:12:31;;;;;;;1.00;1.00;;;8.70;81.10;;;;;;5073348;28;20194;-84
2023/12/16 04:15:00;;;;;;;0.40;0.40;;;8.70;80.60;;;;;;5072310;28;20657;-83
2023/12/16 04:17:29;;;;;;;0.63;0.50;;;8.60;80.50;;;;;;5075264;28;20209;-82
2023/12/16 04:19:57;;;;;;;1.63;1.50;;;8.60;80.10;;;;;;5078097;28;20198;-82
2023/12/16 04:22:26;;;;;;;0.80;0.80;;;8.60;80.20;;;;;;5087152;28;20300;-85
2023/12/16 04:24:57;;;;;;;0.63;0.63;;;8.60;80.10;;;;;;5073244;28;20225;-83
2023/12/16 04:27:29;;;;;;;0.67;0.67;;;8.60;79.40;;;;;;5076587;28;20202;-82
2023/12/16 04:29:57;;;;;;;3.50;0.90;;;8.60;79.20;;;;;;5073436;28;20198;-83
2023/12/16 04:32:26;;;;;;;0.70;0.70;;;8.60;78.60;;;;;;5074094;28;20213;-82
2023/12/16 04:34:57;;;;;;;1.50;1.40;;;8.60;78.10;;;;;;5075814;28;20258;-83
2023/12/16 04:37:25;;;;;;;1.90;1.53;;;8.60;77.50;;;;;;5078052;28;20208;-81
2023/12/16 04:39:54;;;;;;;0.70;0.70;;;8.50;76.30;;;;;;5072984;28;20637;-82
2023/12/16 04:42:23;;;;;;;0.75;0.75;;;8.50;75.60;;;;;;5075502;28;20439;-81
2023/12/16 04:44:53;;;;;;;0.57;0.57;;;8.50;76.70;;;;;;5072761;28;20230;-82
2023/12/16 04:47:22;;;;;;;2.00;0.90;;;8.40;75.10;;;;;;5071339;28;20202;-81
2023/12/16 04:49:50;;;;;;;0.70;0.70;;;8.50;75.90;;;;;;5076479;28;20198;-80
2023/12/16 04:52:19;;;;;;;0.40;0.40;;;8.40;76.00;;;;;;5043693;28;20202;-86
2023/12/16 04:54:48;;;;;;;0.60;0.60;;;8.40;74.90;;;;;;5066694;28;20212;-87
2023/12/16 04:57:16;;;;;;;1.03;0.93;;;8.40;75.00;;;;;;5062291;28;20174;-83
2023/12/16 04:59:55;;;;;;;0.70;0.70;;;8.30;74.40;;;;;;5061509;28;20279;-83
2023/12/16 05:02:23;;;;;;;0.60;0.60;;;8.30;74.10;;;;;;5059096;28;20187;-86
2023/12/16 05:04:53;;;;;;;0.77;0.77;;;8.30;74.20;;;;;;5063137;28;20596;-84
2023/12/16 05:07:24;;;;;;;1.47;1.03;;;8.30;73.90;;;;;;5066601;28;20869;-85
2023/12/16 05:09:53;;;;;;;0.60;0.60;;;8.30;73.90;;;;;;5061687;28;20661;-83
2023/12/16 05:12:22;;;;;;;0.63;0.63;;;8.30;73.30;;;;;;5067202;28;20234;-87
2023/12/16 05:15:05;;;;;;;0.37;0.37;;;8.30;73.10;;;;;;5073513;28;20202;-87
2023/12/16 05:17:33;;;;;;;0.93;0.93;;;8.30;73.10;;;;;;5079108;28;20208;-89
2023/12/16 05:20:03;;;;;;;0.73;0.73;;;8.20;72.70;;;;;;5086306;28;20272;-89
2023/12/16 05:22:33;;;;;;;1.70;0.97;;;8.20;71.50;;;;;;5075734;28;20312;-88
2023/12/16 05:25:03;;;;;;;1.13;0.60;;;8.20;71.10;;;;;;5075256;28;20214;-85
2023/12/16 05:27:32;;;;;;;1.10;1.00;;;8.10;69.90;;;;;;5074660;28;20289;-87
2023/12/16 05:30:02;;;;;;;1.10;0.93;;;8.10;70.20;;;;;;5078059;28;20198;-87
2023/12/16 05:32:33;;;;;;;0.60;0.60;;;8.00;69.60;;;;;;5073734;28;20629;-88
2023/12/16 05:35:02;;;;;;;0.80;0.68;;;7.90;68.60;;;;;;5072139;28;20425;-88
2023/12/16 05:37:31;;;;;;;0.60;0.60;;;7.90;69.60;;;;;;5074845;28;20277;-90
2023/12/16 05:40:00;;;;;;;1.13;0.80;;;8.00;70.60;;;;;;5077018;28;20905;-90
2023/12/16 05:42:29;;;;;;;0.83;0.83;;;8.00;70.90;;;;;;5064711;28;20202;-82
2023/12/16 05:44:58;;;;;;;0.80;0.80;;;8.00;71.10;;;;;;5072915;28;20689;-89
2023/12/16 05:47:29;;;;;;;0.40;0.40;;;8.00;70.80;;;;;;5074829;28;20198;-85
2023/12/16 05:49:59;;;;;;;5.27;0.70;;;8.00;69.40;;;;;;5075817;28;20642;-88
2023/12/16 05:52:28;;;;;;;0.40;0.40;;;7.90;69.10;;;;;;5071199;28;20294;-87
2023/12/16 05:54:57;;;;;;;0.30;0.30;;;8.00;69.40;;;;;;5075855;28;20199;-87
2023/12/16 05:57:26;;;;;;;0.70;0.70;;;7.90;68.30;;;;;;5083085;28;20256;-90
2023/12/16 05:59:55;;;;;;;0.40;0.40;;;7.90;69.00;;;;;;5071979;28;20260;-89
2023/12/16 06:02:23;;;;;;;0.70;0.70;;;7.90;69.20;;;;;;5071952;28;20199;-90
2023/12/16 06:04:52;;;;;;;0.50;0.50;;;7.90;69.00;;;;;;5068773;28;20295;-88
2023/12/16 06:07:22;;;;;;;0.77;0.77;;;7.90;68.80;;;;;;5072166;28;20206;-88
2023/12/16 06:09:49;;;;;;;5.80;1.50;;;7.90;69.00;;;;;;5077150;28;20201;-90
2023/12/16 06:12:18;;;;;;;0.30;0.30;;;7.90;69.10;;;;;;5079274;28;20252;-89
2023/12/16 06:14:47;;;;;;;0.87;0.87;;;7.80;68.60;;;;;;5075103;28;20191;-88
2023/12/16 06:17:16;;;;;;;0.40;0.40;;;7.80;68.30;;;;;;5071454;28;20211;-86
2023/12/16 06:19:45;;;;;;;0.57;0.57;;;7.80;68.30;;;;;;5075861;28;20289;-86
2023/12/16 06:22:14;;;;;;;0.50;0.50;;;7.80;68.30;;;;;;5075622;28;20202;-85
2023/12/16 06:24:45;;;;;;;0.50;0.50;;;7.80;67.80;;;;;;5077839;28;20304;-83
2023/12/16 06:27:14;;;;;;;0.93;0.87;;;7.70;67.90;;;;;;5075673;28;20243;-88
2023/12/16 06:29:43;;;;;;;0.40;0.40;;;7.70;67.80;;;;;;5072397;28;20256;-87
2023/12/16 06:32:12;;;;;;;1.00;0.97;;;7.70;68.00;;;;;;5074773;28;20197;-89
2023/12/16 06:34:40;;;;;;;1.27;1.07;;;7.70;68.70;;;;;;5082080;28;20197;-88
2023/12/16 06:37:09;;;;;;;0.30;0.30;;;7.70;69.00;;;;;;5075458;28;20256;-84
2023/12/16 06:39:38;;;;;;;0.40;0.40;;;7.70;68.60;;;;;;5086471;28;20681;-87
2023/12/16 06:42:10;;;;;;;1.53;0.53;;;7.70;68.70;;;;;;5066131;28;20194;-83
2023/12/16 06:44:39;;;;;;;0.70;0.70;;;7.60;68.50;;;;;;5081979;28;20202;-88
2023/12/16 06:47:08;;;;;;;0.50;0.50;;;7.60;68.70;;;;;;5069087;28;20193;-86
2023/12/16 06:49:39;;;;;;;0.87;0.70;;;7.60;68.70;;;;;;5070048;28;20285;-80
2023/12/16 06:52:08;;;;;;;0.53;0.53;;;7.60;69.00;;;;;;5074961;28;20211;-80
2023/12/16 06:54:36;;;;;;;0.73;0.73;;;7.60;69.50;;;;;;5078715;28;20202;-87
2023/12/16 06:57:05;;;;;;;0.60;0.60;;;7.70;69.90;;;;;;5073020;28;20654;-82
2023/12/16 06:59:35;;;;;;;0.70;0.70;;;7.70;69.90;;;;;;5076846;28;20222;-83
2023/12/16 07:02:06;;;;;;;1.47;0.77;;;7.80;69.70;;;;;;5071960;28;20195;-88
2023/12/16 07:04:36;;;;;;;0.80;0.80;;;7.80;69.60;;;;;;5080296;28;20189;-86
2023/12/16 07:07:07;;;;;;;0.93;0.93;;;7.80;69.00;;;;;;5069446;28;20218;-85
2023/12/16 07:09:35;;;;;;;0.80;0.80;;;7.90;69.60;;;;;;5068169;28;20575;-85
2023/12/16 07:12:04;;;;;;;4.83;2.40;;;7.90;69.50;;;;;;5071441;28;20284;-85
2023/12/16 07:14:37;;;;;;;0.77;0.77;;;7.90;69.70;;;;;;5078128;28;20206;-85
2023/12/16 07:17:06;;;;;;;0.67;0.67;;;7.90;69.10;;;;;;5074904;28;20557;-85
2023/12/16 07:19:36;;;;;;;0.73;0.70;;;7.90;69.10;;;;;;5070573;28;20201;-85
2023/12/16 07:22:04;;;;;;;0.83;0.83;;;7.90;69.50;;;;;;5078211;28;20618;-85
2023/12/16 07:24:33;;;;;;;0.53;0.53;;;7.90;70.00;;;;;;5083077;28;20259;-85
2023/12/16 07:27:01;;;;;;;0.80;0.80;;;8.00;70.50;;;;;;5071625;28;20223;-84
2023/12/16 07:29:35;;;;;;;0.93;0.70;;;7.90;69.60;;;;;;5068734;28;20549;-87
2023/12/16 07:32:05;;;;;;;0.77;0.77;;;7.90;69.10;;;;;;5074939;28;20244;-85
2023/12/16 07:34:34;;;;;;;0.40;0.40;;;7.90;69.00;;;;;;5069524;28;20218;-85
2023/12/16 07:37:02;;;;;;;0.30;0.30;;;8.00;69.80;;;;;;5073852;28;20289;-85
2023/12/16 07:39:31;;;;;;;0.60;0.60;;;8.00;69.60;;;;;;5067291;28;20202;-88
2023/12/16 07:41:59;;;;;;;0.40;0.40;;;8.00;68.60;;;;;;5077922;28;20204;-85
2023/12/16 07:44:28;;;;;;;4.70;0.93;;;8.10;69.10;;;;;;5070483;28;20206;-83
2023/12/16 07:46:59;;;;;;;0.73;0.73;;;8.10;68.40;;;;;;5070837;28;20230;-87
2023/12/16 07:49:28;;;;;;;0.70;0.70;;;8.20;68.90;;;;;;5064463;28;20285;-85
2023/12/16 07:51:57;;;;;;;0.70;0.70;;;8.20;67.30;;;;;;5071337;28;20199;-85
2023/12/16 07:54:27;;;;;;;0.60;0.53;;;8.20;67.30;;;;;;5072612;28;20280;-86
2023/12/16 07:56:56;;;;;;;0.40;0.40;;;8.20;67.50;;;;;;5074781;28;20248;-86
2023/12/16 07:59:24;;;;;;;0.37;0.37;;;8.20;67.00;;;;;;5070979;28;20668;-86
2023/12/16 08:01:55;;;;;;;0.80;0.80;;;8.30;67.30;;;;;;5067188;28;20653;-85
2023/12/16 08:04:25;;;;;;;0.97;0.97;;;8.30;67.20;;;;;;5068164;28;20535;-87
2023/12/16 08:06:54;;;;;;;0.40;0.40;;;8.30;67.20;;;;;;5078157;28;20226;-87
2023/12/16 08:09:22;;;;;;;0.70;0.70;;;8.30;67.20;;;;;;5071237;28;20190;-86
2023/12/16 08:11:54;;;;;;;0.30;0.30;;;8.30;67.70;;;;;;5080787;28;20580;-85
2023/12/16 08:14:23;;;;;;;1.20;1.13;;;8.40;68.00;;;;;;5070486;28;20654;-85
2023/12/16 08:16:51;;;;;;;0.60;0.60;;;8.40;68.10;;;;;;5066964;28;20289;-84
2023/12/16 08:19:20;;;;;;;0.97;0.83;;;8.30;66.10;;;;;;5072885;28;20194;-85
2023/12/16 08:21:50;;;;;;;0.40;0.40;;;8.30;66.00;;;;;;5077879;28;20220;-85
2023/12/16 08:24:19;;;;;;;0.40;0.40;;;8.20;66.10;;;;;;5065786;28;20218;-85
2023/12/16 08:26:49;;;;;;;0.40;0.40;;;8.20;66.60;;;;;;5074743;28;20325;-84
2023/12/16 08:29:19;;;;;;;1.20;1.10;;;8.20;66.70;;;;;;5071102;28;20205;-84
2023/12/16 08:31:49;;;;;;;0.50;0.50;;;8.20;67.10;;;;;;5074180;28;20202;-84
2023/12/16 08:34:17;;;;;;;0.50;0.50;;;8.20;66.60;;;;;;5081297;28;20200;-85
2023/12/16 08:36:48;;;;;;;3.93;0.67;;;8.10;66.60;;;;;;5072379;28;20216;-85
2023/12/16 08:39:19;;;;;;;0.63;0.63;;;8.20;66.90;;;;;;5066937;28;20250;-85
2023/12/16 08:41:47;;;;;;;0.50;0.50;;;8.10;66.60;;;;;;5073593;28;20210;-84
2023/12/16 08:44:16;;;;;;;0.50;0.50;;;8.10;66.30;;;;;;5074318;28;20658;-83
2023/12/16 08:46:45;;;;;;;0.60;0.60;;;8.10;66.50;;;;;;5071228;28;20221;-84
2023/12/16 08:49:14;;;;;;;0.40;0.40;;;8.10;66.50;;;;;;5074139;28;20225;-85
2023/12/16 08:51:43;;;;;;;0.73;0.50;;;8.10;67.20;;;;;;5075291;28;20294;-85
2023/12/16 08:54:12;;;;;;;1.17;1.07;;;8.10;66.90;;;;;;5071660;28;20190;-85
2023/12/16 08:56:43;;;;;;;0.40;0.40;;;8.10;67.40;;;;;;5065017;28;20255;-83
2023/12/16 08:59:12;;;;;;;0.50;0.50;;;8.10;67.10;;;;;;5072399;28;20226;-86
2023/12/16 09:01:41;;;;;;;0.70;0.70;;;8.00;65.80;;;;;;5075992;28;20228;-85
2023/12/16 09:04:09;;;;;;;1.13;0.53;;;8.10;66.60;;;;;;5061252;28;20202;-84
2023/12/16 09:06:43;;;;;;;0.40;0.40;;;8.00;65.20;;;;;;5070829;28;20297;-81
2023/12/16 09:09:12;;;;;;;0.73;0.53;;;7.90;65.00;;;;;;5064321;28;20228;-84
2023/12/16 09:11:45;;;;;;;1.40;1.20;;;8.00;65.80;;;;;;5065418;28;20198;-82
2023/12/16 09:14:13;;;;;;;0.40;0.40;;;8.00;65.90;;;;;;5072048;28;20285;-82
2023/12/16 09:16:42;;;;;;;0.47;0.47;;;8.10;66.30;;;;;;5070752;28;20206;-84
2023/12/16 09:19:11;;;;;;;0.73;0.70;;;8.10;66.50;;;;;;5069591;28;20194;-82
2023/12/16 09:21:42;;;;;;;0.60;0.60;;;8.10;67.00;;;;;;5063328;28;20222;-84
2023/12/16 09:24:11;;;;;;;0.63;0.63;;;8.20;67.60;;;;;;5071096;28;20219;-84
2023/12/16 09:26:43;;;;;;;0.73;0.73;;;8.20;67.40;;;;;;5071015;28;20225;-83
2023/12/16 09:29:12;;;;;;;0.60;0.60;;;8.20;67.50;;;;;;5064556;28;20221;-82
2023/12/16 09:31:41;;;;;;;0.60;0.60;;;8.20;67.90;;;;;;5069185;28;20209;-83
2023/12/16 09:34:10;;;;;;;0.40;0.40;;;8.30;67.90;;;;;;5072221;28;20210;-82
2023/12/16 09:36:38;;;;;;;0.40;0.40;;;8.30;68.00;;;;;;5073808;28;20260;-83
2023/12/16 09:39:10;;;;;;;0.40;0.40;;;8.30;67.50;;;;;;5068013;28;20202;-82
2023/12/16 09:41:44;;;;;;;0.50;0.50;;;8.40;67.70;;;;;;5071499;28;20209;-83
2023/12/16 09:44:18;;;;;;;0.40;0.40;;;8.40;68.60;;;;;;5072571;28;20295;-84
2023/12/16 09:46:48;;;;;;;0.53;0.40;;;8.40;67.90;;;;;;5069969;28;20217;-83
2023/12/16 09:49:17;;;;;;;0.57;0.57;;;8.50;67.70;;;;;;5074524;28;20675;-82
2023/12/16 09:51:46;;;;;;;1.57;1.20;;;8.50;68.00;;;;;;5076853;28;20202;-83
2023/12/16 09:54:16;;;;;;;0.60;0.60;;;8.60;68.20;;;;;;5071010;28;20194;-85
2023/12/16 09:56:46;;;;;;;0.50;0.50;;;8.50;67.00;;;;;;5081180;28;20682;-84
2023/12/16 09:59:18;;;;;;;0.40;0.40;;;8.60;67.60;;;;;;5074831;28;20237;-83
2023/12/16 10:01:53;;;;;;;0.70;0.70;;;8.60;67.70;;;;;;5074808;28;20204;-83
2023/12/16 10:04:23;;;;;;;1.33;1.13;;;8.70;67.30;;;;;;5074723;28;20719;-82
2023/12/16 10:06:51;;;;;;;0.53;0.53;;;8.60;66.30;;;;;;5073555;28;20236;-83
2023/12/16 10:09:20;;;;;;;0.93;0.77;;;8.60;66.00;;;;;;5075524;28;20259;-83
2023/12/16 10:11:51;;;;;;;0.47;0.47;;;8.70;66.70;;;;;;5073140;28;20190;-84
2023/12/16 10:14:21;;;;;;;0.87;0.87;;;8.70;66.30;;;;;;5075719;28;20195;-83
2023/12/16 10:16:50;;;;;;;0.70;0.70;;;8.80;65.20;;;;;;5070084;28;20290;-83
2023/12/16 10:19:19;;;;;;;1.20;1.10;;;8.80;65.80;;;;;;5075138;28;20433;-83
2023/12/16 10:21:48;;;;;;;0.70;0.70;;;8.80;64.50;;;;;;5072026;28;20285;-82
2023/12/16 10:24:17;;;;;;;0.63;0.63;;;8.70;64.70;;;;;;5065681;28;20198;-82
2023/12/16 10:26:46;;;;;;;1.13;1.03;;;8.80;65.40;;;;;;5072381;28;20286;-83
2023/12/16 10:29:14;;;;;;;0.30;0.30;;;8.80;65.50;;;;;;5079666;28;20194;-84
2023/12/16 10:31:44;;;;;;;1.07;0.87;;;8.80;65.50;;;;;;5078835;28;20240;-83
2023/12/16 10:34:14;;;;;;;0.60;0.60;;;8.80;65.00;;;;;;5073363;28;20226;-83
2023/12/16 10:36:43;;;;;;;0.70;0.70;;;8.80;65.20;;;;;;5071473;28;20248;-83
2023/12/16 10:39:12;;;;;;;0.80;0.80;;;8.90;65.70;;;;;;5074433;28;20255;-84
2023/12/16 10:41:40;;;;;;;1.33;1.23;;;8.90;65.70;;;;;;5066419;28;20195;-82
2023/12/16 10:44:09;;;;;;;1.13;1.13;;;9.00;66.10;;;;;;5071830;28;20259;-83
2023/12/16 10:46:41;;;;;;;2.00;0.60;;;8.90;66.00;;;;;;5072596;28;20237;-82
2023/12/16 10:49:16;;;;;;;0.40;0.40;;;9.00;66.00;;;;;;5069149;28;20249;-83
2023/12/16 10:51:49;;;;;;;0.93;0.90;;;9.00;65.20;;;;;;5069456;28;20206;-84
2023/12/16 10:54:27;;;;;;;1.23;1.13;;;9.00;65.10;;;;;;5067410;28;20202;-84
2023/12/16 10:57:07;;;;;;;0.40;0.40;;;9.00;65.90;;;;;;5071240;28;20198;-83
2023/12/16 10:59:41;;;;;;;0.40;0.40;;;9.00;65.80;;;;;;5080997;28;20230;-83
2023/12/16 11:02:23;;;;;;;1.63;1.20;;;9.10;65.90;;;;;;5070556;28;20198;-83
2023/12/16 11:05:05;;;;;;;0.40;0.40;;;9.10;66.30;;;;;;5072411;28;20210;-83
2023/12/16 11:07:38;;;;;;;0.30;0.30;;;9.10;66.10;;;;;;5078248;28;20332;-83
2023/12/16 11:10:08;;;;;;;0.40;0.40;;;9.10;65.40;;;;;;5076492;28;20307;-82
2023/12/16 11:12:39;;;;;;;0.67;0.67;;;9.20;65.30;;;;;;5079271;28;20290;-81
2023/12/16 11:15:10;;;;;;;0.63;0.63;;;9.10;64.70;;;;;;5077591;28;20193;-82
2023/12/16 11:17:43;;;;;;;0.70;0.70;;;9.10;65.20;;;;;;5074611;28;20206;-82
2023/12/16 11:20:18;;;;;;;0.70;0.70;;;9.10;65.00;;;;;;5074461;28;20209;-82
2023/12/16 11:22:49;;;;;;;0.43;0.43;;;9.10;64.80;;;;;;5078952;28;20202;-84
2023/12/16 11:25:19;;;;;;;0.77;0.73;;;9.20;65.40;;;;;;5074248;28;20199;-82
2023/12/16 11:27:48;;;;;;;1.30;1.23;;;9.20;64.10;;;;;;5072325;28;20222;-83
2023/12/16 11:30:18;;;;;;;0.40;0.40;;;9.00;63.90;;;;;;5074530;28;20221;-82
2023/12/16 11:32:53;;;;;;;0.70;0.70;;;9.00;63.90;;;;;;5068221;28;20591;-82
2023/12/16 11:35:50;;;;;;;3.40;0.90;;;9.00;64.00;;;;;;5074706;28;20251;-85
2023/12/16 11:38:41;;;;;;;1.67;0.83;;;9.10;64.70;;;;;;5069939;28;20202;-85
2023/12/16 11:41:12;;;;;;;0.83;0.83;;;9.00;63.90;;;;;;5065126;28;20206;-83
2023/12/16 11:43:52;;;;;;;0.68;0.68;;;9.00;63.00;;;;;;5062259;28;20442;-84
2023/12/16 11:46:38;;;;;;;0.63;0.63;;;9.10;64.20;;;;;;5082143;28;20540;-83
2023/12/16 11:49:10;;;;;;;1.40;1.27;;;9.20;64.60;;;;;;5065583;28;20210;-85
2023/12/16 11:51:43;;;;;;;1.60;0.73;;;9.20;63.70;;;;;;5072375;28;20596;-85
2023/12/16 11:54:12;;;;;;;0.40;0.40;;;9.30;62.90;;;;;;5073550;28;20198;-85
2023/12/16 11:57:22;;;;;;;;;;;;;;;;;;;;;
2023/12/16 11:59:56;;;;;;;1.27;1.17;;;9.40;63.30;;;;;;5025450;28;20673;-83
2023/12/16 12:02:25;;;;;;;0.57;0.57;;;9.40;62.80;;;;;;5032965;28;20234;-83
2023/12/16 12:04:53;;;;;;;0.50;0.50;;;9.40;62.50;;;;;;5027816;28;20595;-83
2023/12/16 12:07:25;;;;;;;0.52;0.52;;;9.40;63.10;;;;;;5032488;28;20438;-83
2023/12/16 12:09:53;;;;;;;0.40;0.40;;;9.40;63.30;;;;;;5024534;28;20353;-82
2023/12/16 12:12:22;;;;;;;0.57;0.57;;;9.40;62.80;;;;;;5033636;28;20199;-82
2023/12/16 12:14:51;;;;;;;0.40;0.40;;;9.40;63.00;;;;;;5026451;28;20718;-82
2023/12/16 12:17:22;;;;;;;1.27;1.07;;;9.40;62.10;;;;;;5024732;28;20214;-82
2023/12/16 12:19:51;;;;;;;0.47;0.47;;;9.40;61.40;;;;;;5031491;28;20207;-83
2023/12/16 12:22:24;;;;;;;1.80;0.70;;;9.30;61.80;;;;;;5031518;28;20203;-83
2023/12/16 12:24:54;;;;;;;1.00;1.00;;;9.40;62.10;;;;;;5072595;28;20649;-83
2023/12/16 12:27:23;;;;;;;0.87;0.87;;;9.40;62.30;;;;;;5072750;28;20202;-82
2023/12/16 12:29:59;;;;;;;0.80;0.80;;;9.30;61.10;;;;;;5074162;28;20732;-82
2023/12/16 12:32:29;;;;;;;0.83;0.83;;;9.30;61.80;;;;;;5071518;28;20198;-83
2023/12/16 12:34:59;;;;;;;0.67;0.67;;;9.30;61.70;;;;;;5075399;28;20343;-83
2023/12/16 12:37:38;;;;;;;0.40;0.40;;;9.30;61.60;;;;;;5071371;28;20214;-83
2023/12/16 12:40:17;;;;;;;0.97;0.97;;;9.30;61.50;;;;;;5073126;28;20224;-82
2023/12/16 12:42:48;;;;;;;0.87;0.87;;;9.20;60.60;;;;;;5073590;28;20202;-83
2023/12/16 12:45:30;;;;;;;0.50;0.50;;;9.20;61.20;;;;;;5076785;28;20202;-83
2023/12/16 12:48:10;;;;;;;0.90;0.77;;;9.20;62.20;;;;;;5070662;28;20233;-83
2023/12/16 12:50:40;;;;;;;0.50;0.50;;;9.20;62.40;;;;;;5071855;28;20194;-82
2023/12/16 12:53:22;;;;;;;5.20;1.50;;;9.30;62.60;;;;;;5073912;28;20226;-83
2023/12/16 12:55:54;;;;;;;0.60;0.60;;;9.30;63.00;;;;;;5073203;28;20202;-83
2023/12/16 12:58:24;;;;;;;0.83;0.80;;;9.20;62.20;;;;;;5076645;28;20305;-83
2023/12/16 13:01:01;;;;;;;0.40;0.40;;;9.20;61.60;;;;;;5062600;28;20197;-83
2023/12/16 13:03:32;;;;;;;0.77;0.77;;;9.20;62.10;;;;;;5067431;28;20659;-83
2023/12/16 13:06:03;;;;;;;0.40;0.40;;;9.20;62.50;;;;;;5074379;28;20225;-83
2023/12/16 13:08:37;;;;;;;1.10;0.97;;;9.20;62.80;;;;;;5081417;28;20582;-83
2023/12/16 13:11:06;;;;;;;0.60;0.60;;;9.20;62.40;;;;;;5081291;28;20213;-84
2023/12/16 13:13:35;;;;;;;1.00;0.90;;;9.30;63.10;;;;;;5084819;28;20198;-85